sensor_id;sensor_type;location;lat;lon;timestamp;P1;durP1;ratioP1;P2;durP2;ratioP2
7477;SDS011;3780;42.424;25.636;2023-09-18T00:01:54;4.63;;;3.45;;
7477;SDS011;3780;42.424;25.636;2023-09-18T00:04:19;6.10;;;3.70;;
7477;SDS011;3780;42.424;25.636;2023-09-18T00:06:44;6.90;;;3.47;;
7477;SDS011;3780;42.424;25.636;2023-09-18T00:09:10;4.75;;;2.83;;
7477;SDS011;3780;42.424;25.636;2023-09-18T00:11:38;9.02;;;3.22;;
7477;SDS011;3780;42.424;25.636;2023-09-18T00:14:04;4.07;;;2.83;;
7477;SDS011;3780;42.424;25.636;2023-09-18T00:16:29;7.05;;;2.45;;
7477;SDS011;3780;42.424;25.636;2023-09-18T00:18:54;4.82;;;2.60;;
7477;SDS011;3780;42.424;25.636;2023-09-18T00:21:19;3.88;;;2.92;;
7477;SDS011;3780;42.424;25.636;2023-09-18T00:23:45;6.43;;;2.90;;
7477;SDS011;3780;42.424;25.636;2023-09-18T00:26:11;3.80;;;2.67;;
7477;SDS011;3780;42.424;25.636;2023-09-18T00:28:36;7.90;;;2.72;;
7477;SDS011;3780;42.424;25.636;2023-09-18T00:31:02;7.03;;;2.92;;
7477;SDS011;3780;42.424;25.636;2023-09-18T00:33:27;6.18;;;2.53;;
7477;SDS011;3780;42.424;25.636;2023-09-18T00:35:52;7.07;;;2.80;;
7477;SDS011;3780;42.424;25.636;2023-09-18T00:38:18;12.55;;;3.05;;
7477;SDS011;3780;42.424;25.636;2023-09-18T00:40:44;8.00;;;2.50;;
7477;SDS011;3780;42.424;25.636;2023-09-18T00:43:09;5.53;;;3.17;;
7477;SDS011;3780;42.424;25.636;2023-09-18T00:45:38;6.82;;;2.92;;
7477;SDS011;3780;42.424;25.636;2023-09-18T00:48:05;4.55;;;2.88;;
7477;SDS011;3780;42.424;25.636;2023-09-18T00:50:30;6.38;;;2.80;;
7477;SDS011;3780;42.424;25.636;2023-09-18T00:52:56;4.25;;;3.00;;
7477;SDS011;3780;42.424;25.636;2023-09-18T00:55:21;5.50;;;3.10;;
7477;SDS011;3780;42.424;25.636;2023-09-18T00:57:46;7.40;;;3.58;;
7477;SDS011;3780;42.424;25.636;2023-09-18T01:00:12;5.95;;;3.47;;
7477;SDS011;3780;42.424;25.636;2023-09-18T01:02:41;7.95;;;4.22;;
7477;SDS011;3780;42.424;25.636;2023-09-18T01:05:07;11.27;;;7.13;;
7477;SDS011;3780;42.424;25.636;2023-09-18T01:07:32;13.50;;;9.48;;
7477;SDS011;3780;42.424;25.636;2023-09-18T01:09:58;11.82;;;8.30;;
7477;SDS011;3780;42.424;25.636;2023-09-18T01:12:26;10.50;;;6.57;;
7477;SDS011;3780;42.424;25.636;2023-09-18T01:15:06;12.52;;;8.35;;
7477;SDS011;3780;42.424;25.636;2023-09-18T01:17:34;12.07;;;8.90;;
7477;SDS011;3780;42.424;25.636;2023-09-18T01:20:02;10.25;;;8.20;;
7477;SDS011;3780;42.424;25.636;2023-09-18T01:22:29;9.88;;;7.30;;
7477;SDS011;3780;42.424;25.636;2023-09-18T01:24:55;9.25;;;6.60;;
7477;SDS011;3780;42.424;25.636;2023-09-18T01:27:20;10.15;;;6.18;;
7477;SDS011;3780;42.424;25.636;2023-09-18T01:29:46;7.72;;;5.53;;
7477;SDS011;3780;42.424;25.636;2023-09-18T01:32:11;8.82;;;5.30;;
7477;SDS011;3780;42.424;25.636;2023-09-18T01:34:38;7.78;;;5.60;;
7477;SDS011;3780;42.424;25.636;2023-09-18T01:37:06;7.40;;;5.05;;
7477;SDS011;3780;42.424;25.636;2023-09-18T01:39:32;9.13;;;5.60;;
7477;SDS011;3780;42.424;25.636;2023-09-18T01:41:59;12.63;;;5.35;;
7477;SDS011;3780;42.424;25.636;2023-09-18T01:44:26;8.32;;;4.93;;
7477;SDS011;3780;42.424;25.636;2023-09-18T01:46:52;8.73;;;5.13;;
7477;SDS011;3780;42.424;25.636;2023-09-18T01:49:28;7.22;;;4.50;;
7477;SDS011;3780;42.424;25.636;2023-09-18T01:51:53;9.70;;;4.60;;
7477;SDS011;3780;42.424;25.636;2023-09-18T01:54:19;7.10;;;4.05;;
7477;SDS011;3780;42.424;25.636;2023-09-18T01:56:44;7.18;;;4.30;;
7477;SDS011;3780;42.424;25.636;2023-09-18T01:59:09;6.82;;;3.90;;
7477;SDS011;3780;42.424;25.636;2023-09-18T02:01:34;7.00;;;3.05;;
7477;SDS011;3780;42.424;25.636;2023-09-18T02:04:00;9.23;;;3.30;;
7477;SDS011;3780;42.424;25.636;2023-09-18T02:06:25;5.70;;;3.20;;
7477;SDS011;3780;42.424;25.636;2023-09-18T02:08:50;9.20;;;3.58;;
7477;SDS011;3780;42.424;25.636;2023-09-18T02:11:16;6.90;;;3.35;;
7477;SDS011;3780;42.424;25.636;2023-09-18T02:13:41;6.45;;;3.15;;
7477;SDS011;3780;42.424;25.636;2023-09-18T02:16:07;4.30;;;2.83;;
7477;SDS011;3780;42.424;25.636;2023-09-18T02:18:32;9.65;;;3.20;;
7477;SDS011;3780;42.424;25.636;2023-09-18T02:20:58;6.00;;;3.50;;
7477;SDS011;3780;42.424;25.636;2023-09-18T02:23:23;6.88;;;3.63;;
7477;SDS011;3780;42.424;25.636;2023-09-18T02:25:55;6.05;;;2.85;;
7477;SDS011;3780;42.424;25.636;2023-09-18T02:28:20;6.55;;;3.65;;
7477;SDS011;3780;42.424;25.636;2023-09-18T02:30:45;5.47;;;3.20;;
7477;SDS011;3780;42.424;25.636;2023-09-18T02:33:11;8.65;;;3.30;;
7477;SDS011;3780;42.424;25.636;2023-09-18T02:35:36;5.72;;;3.13;;
7477;SDS011;3780;42.424;25.636;2023-09-18T02:38:01;7.35;;;3.13;;
7477;SDS011;3780;42.424;25.636;2023-09-18T02:40:27;5.90;;;3.40;;
7477;SDS011;3780;42.424;25.636;2023-09-18T02:42:53;7.00;;;3.72;;
7477;SDS011;3780;42.424;25.636;2023-09-18T02:45:18;6.18;;;2.83;;
7477;SDS011;3780;42.424;25.636;2023-09-18T02:47:43;5.63;;;3.25;;
7477;SDS011;3780;42.424;25.636;2023-09-18T02:50:09;4.15;;;3.05;;
7477;SDS011;3780;42.424;25.636;2023-09-18T02:52:36;7.90;;;2.97;;
7477;SDS011;3780;42.424;25.636;2023-09-18T02:55:01;4.68;;;2.95;;
7477;SDS011;3780;42.424;25.636;2023-09-18T02:57:27;6.00;;;2.83;;
7477;SDS011;3780;42.424;25.636;2023-09-18T02:59:52;6.45;;;3.50;;
7477;SDS011;3780;42.424;25.636;2023-09-18T03:02:17;5.18;;;3.13;;
7477;SDS011;3780;42.424;25.636;2023-09-18T03:04:42;5.03;;;3.15;;
7477;SDS011;3780;42.424;25.636;2023-09-18T03:07:08;4.10;;;2.75;;
7477;SDS011;3780;42.424;25.636;2023-09-18T03:09:33;5.43;;;3.03;;
7477;SDS011;3780;42.424;25.636;2023-09-18T03:12:00;7.55;;;3.50;;
7477;SDS011;3780;42.424;25.636;2023-09-18T03:14:25;8.38;;;3.40;;
7477;SDS011;3780;42.424;25.636;2023-09-18T03:16:51;9.60;;;3.08;;
7477;SDS011;3780;42.424;25.636;2023-09-18T03:19:16;5.78;;;3.03;;
7477;SDS011;3780;42.424;25.636;2023-09-18T03:21:41;8.80;;;3.22;;
7477;SDS011;3780;42.424;25.636;2023-09-18T03:24:07;7.03;;;3.60;;
7477;SDS011;3780;42.424;25.636;2023-09-18T03:26:32;6.35;;;3.00;;
7477;SDS011;3780;42.424;25.636;2023-09-18T03:28:57;6.38;;;2.88;;
7477;SDS011;3780;42.424;25.636;2023-09-18T03:31:23;7.35;;;3.60;;
7477;SDS011;3780;42.424;25.636;2023-09-18T03:33:48;5.93;;;3.03;;
7477;SDS011;3780;42.424;25.636;2023-09-18T03:36:13;7.07;;;3.08;;
7477;SDS011;3780;42.424;25.636;2023-09-18T03:38:39;7.45;;;3.47;;
7477;SDS011;3780;42.424;25.636;2023-09-18T03:41:05;9.88;;;3.50;;
7477;SDS011;3780;42.424;25.636;2023-09-18T03:43:30;9.88;;;3.10;;
7477;SDS011;3780;42.424;25.636;2023-09-18T03:46:02;8.63;;;4.20;;
7477;SDS011;3780;42.424;25.636;2023-09-18T03:48:27;9.57;;;3.35;;
7477;SDS011;3780;42.424;25.636;2023-09-18T03:50:53;10.50;;;3.53;;
7477;SDS011;3780;42.424;25.636;2023-09-18T03:53:18;6.28;;;3.38;;
7477;SDS011;3780;42.424;25.636;2023-09-18T03:55:43;12.18;;;3.75;;
7477;SDS011;3780;42.424;25.636;2023-09-18T03:58:09;9.18;;;3.97;;
7477;SDS011;3780;42.424;25.636;2023-09-18T04:00:35;7.82;;;3.35;;
7477;SDS011;3780;42.424;25.636;2023-09-18T04:03:00;11.73;;;3.75;;
7477;SDS011;3780;42.424;25.636;2023-09-18T04:05:26;17.75;;;4.53;;
7477;SDS011;3780;42.424;25.636;2023-09-18T04:07:51;17.35;;;4.72;;
7477;SDS011;3780;42.424;25.636;2023-09-18T04:10:17;11.23;;;4.03;;
7477;SDS011;3780;42.424;25.636;2023-09-18T04:12:48;9.85;;;4.97;;
7477;SDS011;3780;42.424;25.636;2023-09-18T04:15:15;12.38;;;4.30;;
7477;SDS011;3780;42.424;25.636;2023-09-18T04:17:41;8.13;;;4.07;;
7477;SDS011;3780;42.424;25.636;2023-09-18T04:20:07;11.43;;;3.80;;
7477;SDS011;3780;42.424;25.636;2023-09-18T04:22:32;7.40;;;3.90;;
7477;SDS011;3780;42.424;25.636;2023-09-18T04:24:58;14.05;;;4.65;;
7477;SDS011;3780;42.424;25.636;2023-09-18T04:27:23;11.05;;;4.20;;
7477;SDS011;3780;42.424;25.636;2023-09-18T04:29:48;11.48;;;4.13;;
7477;SDS011;3780;42.424;25.636;2023-09-18T04:32:14;7.40;;;4.35;;
7477;SDS011;3780;42.424;25.636;2023-09-18T04:34:39;15.57;;;4.07;;
7477;SDS011;3780;42.424;25.636;2023-09-18T04:37:04;10.50;;;4.10;;
7477;SDS011;3780;42.424;25.636;2023-09-18T04:39:30;7.82;;;4.55;;
7477;SDS011;3780;42.424;25.636;2023-09-18T04:41:55;11.23;;;4.22;;
7477;SDS011;3780;42.424;25.636;2023-09-18T04:44:20;12.98;;;4.63;;
7477;SDS011;3780;42.424;25.636;2023-09-18T04:46:46;12.68;;;4.40;;
7477;SDS011;3780;42.424;25.636;2023-09-18T04:49:11;12.95;;;4.32;;
7477;SDS011;3780;42.424;25.636;2023-09-18T04:51:37;7.10;;;3.83;;
7477;SDS011;3780;42.424;25.636;2023-09-18T04:54:02;14.25;;;9.43;;
7477;SDS011;3780;42.424;25.636;2023-09-18T04:56:29;15.43;;;5.10;;
7477;SDS011;3780;42.424;25.636;2023-09-18T04:58:54;10.35;;;5.00;;
7477;SDS011;3780;42.424;25.636;2023-09-18T05:01:20;13.93;;;5.90;;
7477;SDS011;3780;42.424;25.636;2023-09-18T05:03:45;22.52;;;12.70;;
7477;SDS011;3780;42.424;25.636;2023-09-18T05:06:11;15.68;;;6.57;;
7477;SDS011;3780;42.424;25.636;2023-09-18T05:08:36;48.72;;;29.15;;
7477;SDS011;3780;42.424;25.636;2023-09-18T05:11:01;27.02;;;16.63;;
7477;SDS011;3780;42.424;25.636;2023-09-18T05:13:26;51.08;;;27.58;;
7477;SDS011;3780;42.424;25.636;2023-09-18T05:15:52;23.73;;;15.10;;
7477;SDS011;3780;42.424;25.636;2023-09-18T05:18:17;23.45;;;15.45;;
7477;SDS011;3780;42.424;25.636;2023-09-18T05:20:43;22.40;;;12.02;;
7477;SDS011;3780;42.424;25.636;2023-09-18T05:23:08;27.70;;;16.08;;
7477;SDS011;3780;42.424;25.636;2023-09-18T05:25:34;25.92;;;15.07;;
7477;SDS011;3780;42.424;25.636;2023-09-18T05:28:02;20.70;;;10.52;;
7477;SDS011;3780;42.424;25.636;2023-09-18T05:30:31;11.95;;;4.38;;
7477;SDS011;3780;42.424;25.636;2023-09-18T05:32:59;19.00;;;5.43;;
7477;SDS011;3780;42.424;25.636;2023-09-18T05:35:39;11.02;;;4.63;;
7477;SDS011;3780;42.424;25.636;2023-09-18T05:38:04;13.50;;;4.85;;
7477;SDS011;3780;42.424;25.636;2023-09-18T05:40:30;10.00;;;4.28;;
7477;SDS011;3780;42.424;25.636;2023-09-18T05:42:56;11.35;;;3.90;;
7477;SDS011;3780;42.424;25.636;2023-09-18T05:45:21;14.85;;;5.22;;
7477;SDS011;3780;42.424;25.636;2023-09-18T05:47:47;18.17;;;7.63;;
7477;SDS011;3780;42.424;25.636;2023-09-18T05:50:12;11.40;;;4.22;;
7477;SDS011;3780;42.424;25.636;2023-09-18T05:52:45;7.85;;;3.65;;
7477;SDS011;3780;42.424;25.636;2023-09-18T05:55:10;10.00;;;3.78;;
7477;SDS011;3780;42.424;25.636;2023-09-18T05:57:36;13.80;;;3.53;;
7477;SDS011;3780;42.424;25.636;2023-09-18T06:00:01;8.63;;;3.90;;
7477;SDS011;3780;42.424;25.636;2023-09-18T06:02:27;12.60;;;3.97;;
7477;SDS011;3780;42.424;25.636;2023-09-18T06:04:56;9.77;;;3.20;;
7477;SDS011;3780;42.424;25.636;2023-09-18T06:07:24;5.60;;;2.85;;
7477;SDS011;3780;42.424;25.636;2023-09-18T06:09:54;5.35;;;2.25;;
7477;SDS011;3780;42.424;25.636;2023-09-18T06:12:30;5.80;;;2.83;;
7477;SDS011;3780;42.424;25.636;2023-09-18T06:14:55;5.00;;;2.70;;
7477;SDS011;3780;42.424;25.636;2023-09-18T06:17:21;5.50;;;2.90;;
7477;SDS011;3780;42.424;25.636;2023-09-18T06:19:46;5.43;;;1.92;;
7477;SDS011;3780;42.424;25.636;2023-09-18T06:22:12;9.27;;;2.67;;
7477;SDS011;3780;42.424;25.636;2023-09-18T06:24:37;10.95;;;3.17;;
7477;SDS011;3780;42.424;25.636;2023-09-18T06:27:03;3.97;;;2.42;;
7477;SDS011;3780;42.424;25.636;2023-09-18T06:29:34;4.78;;;2.65;;
7477;SDS011;3780;42.424;25.636;2023-09-18T06:32:00;4.78;;;2.38;;
7477;SDS011;3780;42.424;25.636;2023-09-18T06:34:26;3.55;;;2.25;;
7477;SDS011;3780;42.424;25.636;2023-09-18T06:36:51;4.20;;;2.63;;
7477;SDS011;3780;42.424;25.636;2023-09-18T06:39:17;7.07;;;2.47;;
7477;SDS011;3780;42.424;25.636;2023-09-18T06:41:42;4.43;;;2.58;;
7477;SDS011;3780;42.424;25.636;2023-09-18T06:44:07;5.70;;;2.40;;
7477;SDS011;3780;42.424;25.636;2023-09-18T06:46:32;8.20;;;2.60;;
7477;SDS011;3780;42.424;25.636;2023-09-18T06:48:58;6.18;;;2.47;;
7477;SDS011;3780;42.424;25.636;2023-09-18T06:51:25;3.88;;;2.30;;
7477;SDS011;3780;42.424;25.636;2023-09-18T06:53:50;3.03;;;2.03;;
7477;SDS011;3780;42.424;25.636;2023-09-18T06:56:16;4.22;;;2.20;;
7477;SDS011;3780;42.424;25.636;2023-09-18T06:58:41;7.50;;;2.20;;
7477;SDS011;3780;42.424;25.636;2023-09-18T07:01:09;5.55;;;2.42;;
7477;SDS011;3780;42.424;25.636;2023-09-18T07:03:43;4.82;;;2.20;;
7477;SDS011;3780;42.424;25.636;2023-09-18T07:06:08;2.35;;;1.98;;
7477;SDS011;3780;42.424;25.636;2023-09-18T07:08:33;4.45;;;1.80;;
7477;SDS011;3780;42.424;25.636;2023-09-18T07:10:59;4.13;;;1.98;;
7477;SDS011;3780;42.424;25.636;2023-09-18T07:13:24;4.68;;;2.20;;
7477;SDS011;3780;42.424;25.636;2023-09-18T07:15:49;3.20;;;1.92;;
7477;SDS011;3780;42.424;25.636;2023-09-18T07:18:15;5.07;;;2.22;;
7477;SDS011;3780;42.424;25.636;2023-09-18T07:20:40;5.15;;;2.15;;
7477;SDS011;3780;42.424;25.636;2023-09-18T07:23:06;3.92;;;2.40;;
7477;SDS011;3780;42.424;25.636;2023-09-18T07:25:32;3.38;;;2.08;;
7477;SDS011;3780;42.424;25.636;2023-09-18T07:27:57;2.83;;;1.90;;
7477;SDS011;3780;42.424;25.636;2023-09-18T07:30:24;4.75;;;2.53;;
7477;SDS011;3780;42.424;25.636;2023-09-18T07:32:52;4.38;;;2.38;;
7477;SDS011;3780;42.424;25.636;2023-09-18T07:35:17;4.95;;;2.30;;
7477;SDS011;3780;42.424;25.636;2023-09-18T07:37:44;6.72;;;2.78;;
7477;SDS011;3780;42.424;25.636;2023-09-18T07:40:11;2.72;;;2.10;;
7477;SDS011;3780;42.424;25.636;2023-09-18T07:42:37;4.60;;;2.03;;
7477;SDS011;3780;42.424;25.636;2023-09-18T07:45:02;3.90;;;2.50;;
7477;SDS011;3780;42.424;25.636;2023-09-18T07:47:27;3.03;;;2.00;;
7477;SDS011;3780;42.424;25.636;2023-09-18T07:49:53;6.40;;;2.38;;
7477;SDS011;3780;42.424;25.636;2023-09-18T07:52:19;7.57;;;2.30;;
7477;SDS011;3780;42.424;25.636;2023-09-18T07:54:44;12.57;;;2.78;;
7477;SDS011;3780;42.424;25.636;2023-09-18T07:57:10;3.25;;;2.17;;
7477;SDS011;3780;42.424;25.636;2023-09-18T07:59:38;6.40;;;2.30;;
7477;SDS011;3780;42.424;25.636;2023-09-18T08:04:34;3.15;;;2.10;;
7477;SDS011;3780;42.424;25.636;2023-09-18T08:06:59;6.47;;;2.17;;
7477;SDS011;3780;42.424;25.636;2023-09-18T08:09:25;5.68;;;2.25;;
7477;SDS011;3780;42.424;25.636;2023-09-18T08:11:50;3.50;;;1.83;;
7477;SDS011;3780;42.424;25.636;2023-09-18T08:14:20;7.78;;;2.90;;
7477;SDS011;3780;42.424;25.636;2023-09-18T08:16:45;5.57;;;1.92;;
7477;SDS011;3780;42.424;25.636;2023-09-18T08:19:11;4.10;;;1.88;;
7477;SDS011;3780;42.424;25.636;2023-09-18T08:21:40;5.13;;;2.15;;
7477;SDS011;3780;42.424;25.636;2023-09-18T08:24:05;5.13;;;2.53;;
7477;SDS011;3780;42.424;25.636;2023-09-18T08:26:30;4.07;;;2.00;;
7477;SDS011;3780;42.424;25.636;2023-09-18T08:28:55;3.88;;;2.17;;
7477;SDS011;3780;42.424;25.636;2023-09-18T08:31:21;3.60;;;2.90;;
7477;SDS011;3780;42.424;25.636;2023-09-18T08:33:46;2.92;;;1.90;;
7477;SDS011;3780;42.424;25.636;2023-09-18T08:36:11;2.70;;;1.90;;
7477;SDS011;3780;42.424;25.636;2023-09-18T08:38:37;5.32;;;2.25;;
7477;SDS011;3780;42.424;25.636;2023-09-18T08:41:03;3.63;;;1.88;;
7477;SDS011;3780;42.424;25.636;2023-09-18T08:43:30;7.20;;;2.38;;
7477;SDS011;3780;42.424;25.636;2023-09-18T08:45:56;3.55;;;1.77;;
7477;SDS011;3780;42.424;25.636;2023-09-18T08:48:27;4.78;;;2.20;;
7477;SDS011;3780;42.424;25.636;2023-09-18T08:50:59;5.53;;;1.88;;
7477;SDS011;3780;42.424;25.636;2023-09-18T08:53:25;3.40;;;1.75;;
7477;SDS011;3780;42.424;25.636;2023-09-18T08:55:50;5.43;;;2.50;;
7477;SDS011;3780;42.424;25.636;2023-09-18T08:58:16;4.75;;;1.67;;
7477;SDS011;3780;42.424;25.636;2023-09-18T09:00:44;7.45;;;1.80;;
7477;SDS011;3780;42.424;25.636;2023-09-18T09:03:09;3.15;;;2.10;;
7477;SDS011;3780;42.424;25.636;2023-09-18T09:05:35;2.72;;;1.60;;
7477;SDS011;3780;42.424;25.636;2023-09-18T09:08:00;3.75;;;1.88;;
7477;SDS011;3780;42.424;25.636;2023-09-18T09:10:26;2.83;;;1.70;;
7477;SDS011;3780;42.424;25.636;2023-09-18T09:12:53;4.57;;;2.40;;
7477;SDS011;3780;42.424;25.636;2023-09-18T09:15:19;3.38;;;2.10;;
7477;SDS011;3780;42.424;25.636;2023-09-18T09:17:44;4.35;;;1.88;;
7477;SDS011;3780;42.424;25.636;2023-09-18T09:20:11;5.80;;;2.05;;
7477;SDS011;3780;42.424;25.636;2023-09-18T09:22:38;2.53;;;2.20;;
7477;SDS011;3780;42.424;25.636;2023-09-18T09:25:03;4.63;;;2.10;;
7477;SDS011;3780;42.424;25.636;2023-09-18T09:27:29;3.13;;;1.92;;
7477;SDS011;3780;42.424;25.636;2023-09-18T09:29:58;4.82;;;2.10;;
7477;SDS011;3780;42.424;25.636;2023-09-18T09:32:23;2.80;;;2.40;;
7477;SDS011;3780;42.424;25.636;2023-09-18T09:34:48;6.93;;;2.20;;
7477;SDS011;3780;42.424;25.636;2023-09-18T09:37:14;4.22;;;2.50;;
7477;SDS011;3780;42.424;25.636;2023-09-18T09:39:51;3.50;;;2.70;;
7477;SDS011;3780;42.424;25.636;2023-09-18T09:42:17;5.50;;;2.60;;
7477;SDS011;3780;42.424;25.636;2023-09-18T09:47:13;2.60;;;2.40;;
7477;SDS011;3780;42.424;25.636;2023-09-18T09:49:46;2.92;;;2.63;;
7477;SDS011;3780;42.424;25.636;2023-09-18T09:52:18;7.95;;;3.28;;
7477;SDS011;3780;42.424;25.636;2023-09-18T09:54:47;4.65;;;2.92;;
7477;SDS011;3780;42.424;25.636;2023-09-18T09:57:12;4.47;;;2.95;;
7477;SDS011;3780;42.424;25.636;2023-09-18T09:59:38;10.43;;;4.13;;
7477;SDS011;3780;42.424;25.636;2023-09-18T10:02:05;6.80;;;5.15;;
7477;SDS011;3780;42.424;25.636;2023-09-18T10:04:34;5.18;;;2.75;;
7477;SDS011;3780;42.424;25.636;2023-09-18T10:07:05;4.97;;;2.70;;
7477;SDS011;3780;42.424;25.636;2023-09-18T10:09:31;4.25;;;2.67;;
7477;SDS011;3780;42.424;25.636;2023-09-18T10:11:59;8.93;;;2.67;;
7477;SDS011;3780;42.424;25.636;2023-09-18T10:14:34;7.25;;;3.22;;
7477;SDS011;3780;42.424;25.636;2023-09-18T10:17:07;7.15;;;3.28;;
7477;SDS011;3780;42.424;25.636;2023-09-18T10:19:58;3.08;;;2.72;;
7477;SDS011;3780;42.424;25.636;2023-09-18T10:22:21;9.52;;;2.95;;
7477;SDS011;3780;42.424;25.636;2023-09-18T10:24:52;10.60;;;4.93;;
7477;SDS011;3780;42.424;25.636;2023-09-18T10:27:19;5.00;;;2.83;;
7477;SDS011;3780;42.424;25.636;2023-09-18T10:29:47;4.72;;;2.75;;
7477;SDS011;3780;42.424;25.636;2023-09-18T10:32:14;3.85;;;2.92;;
7477;SDS011;3780;42.424;25.636;2023-09-18T10:34:39;5.40;;;2.80;;
7477;SDS011;3780;42.424;25.636;2023-09-18T10:37:06;4.00;;;2.90;;
7477;SDS011;3780;42.424;25.636;2023-09-18T10:39:37;3.20;;;2.53;;
7477;SDS011;3780;42.424;25.636;2023-09-18T10:42:02;5.65;;;3.20;;
7477;SDS011;3780;42.424;25.636;2023-09-18T10:44:29;7.28;;;3.00;;
7477;SDS011;3780;42.424;25.636;2023-09-18T10:46:56;3.45;;;2.83;;
7477;SDS011;3780;42.424;25.636;2023-09-18T10:49:21;4.55;;;2.90;;
7477;SDS011;3780;42.424;25.636;2023-09-18T10:51:47;5.43;;;2.67;;
7477;SDS011;3780;42.424;25.636;2023-09-18T10:54:16;4.28;;;2.75;;
7477;SDS011;3780;42.424;25.636;2023-09-18T10:56:42;5.95;;;2.88;;
7477;SDS011;3780;42.424;25.636;2023-09-18T10:59:07;6.57;;;2.92;;
7477;SDS011;3780;42.424;25.636;2023-09-18T11:01:33;5.60;;;3.40;;
7477;SDS011;3780;42.424;25.636;2023-09-18T11:04:01;8.32;;;4.30;;
7477;SDS011;3780;42.424;25.636;2023-09-18T11:06:27;8.55;;;3.35;;
7477;SDS011;3780;42.424;25.636;2023-09-18T11:08:59;9.95;;;3.50;;
7477;SDS011;3780;42.424;25.636;2023-09-18T11:11:26;8.18;;;3.15;;
7477;SDS011;3780;42.424;25.636;2023-09-18T11:13:54;8.30;;;3.28;;
7477;SDS011;3780;42.424;25.636;2023-09-18T11:21:24;4.55;;;3.03;;
7477;SDS011;3780;42.424;25.636;2023-09-18T11:23:57;7.78;;;3.50;;
7477;SDS011;3780;42.424;25.636;2023-09-18T11:26:22;5.47;;;3.05;;
7477;SDS011;3780;42.424;25.636;2023-09-18T11:28:48;6.30;;;3.25;;
7477;SDS011;3780;42.424;25.636;2023-09-18T11:31:15;6.15;;;3.45;;
7477;SDS011;3780;42.424;25.636;2023-09-18T11:33:42;6.07;;;3.40;;
7477;SDS011;3780;42.424;25.636;2023-09-18T11:36:19;4.68;;;3.30;;
7477;SDS011;3780;42.424;25.636;2023-09-18T11:38:55;8.80;;;3.42;;
7477;SDS011;3780;42.424;25.636;2023-09-18T11:41:28;5.60;;;3.28;;
7477;SDS011;3780;42.424;25.636;2023-09-18T11:44:39;4.22;;;2.95;;
7477;SDS011;3780;42.424;25.636;2023-09-18T11:46:47;3.55;;;2.40;;
7477;SDS011;3780;42.424;25.636;2023-09-18T11:49:20;4.70;;;2.75;;
7477;SDS011;3780;42.424;25.636;2023-09-18T11:51:51;3.85;;;2.45;;
7477;SDS011;3780;42.424;25.636;2023-09-18T11:54:17;10.30;;;3.28;;
7477;SDS011;3780;42.424;25.636;2023-09-18T11:56:42;5.20;;;3.10;;
7477;SDS011;3780;42.424;25.636;2023-09-18T11:59:08;7.75;;;2.67;;
7477;SDS011;3780;42.424;25.636;2023-09-18T12:01:34;4.07;;;2.58;;
7477;SDS011;3780;42.424;25.636;2023-09-18T12:04:04;5.07;;;3.28;;
7477;SDS011;3780;42.424;25.636;2023-09-18T12:06:38;3.63;;;2.38;;
7477;SDS011;3780;42.424;25.636;2023-09-18T12:09:03;4.20;;;2.88;;
7477;SDS011;3780;42.424;25.636;2023-09-18T12:11:29;3.53;;;2.80;;
7477;SDS011;3780;42.424;25.636;2023-09-18T12:13:54;3.88;;;2.55;;
7477;SDS011;3780;42.424;25.636;2023-09-18T12:16:19;3.15;;;2.20;;
7477;SDS011;3780;42.424;25.636;2023-09-18T12:18:48;5.15;;;2.25;;
7477;SDS011;3780;42.424;25.636;2023-09-18T12:21:14;6.97;;;2.50;;
7477;SDS011;3780;42.424;25.636;2023-09-18T12:23:42;3.97;;;2.58;;
7477;SDS011;3780;42.424;25.636;2023-09-18T12:26:10;4.00;;;2.58;;
7477;SDS011;3780;42.424;25.636;2023-09-18T12:28:35;3.65;;;2.35;;
7477;SDS011;3780;42.424;25.636;2023-09-18T12:31:01;6.85;;;3.00;;
7477;SDS011;3780;42.424;25.636;2023-09-18T12:33:30;7.90;;;2.30;;
7477;SDS011;3780;42.424;25.636;2023-09-18T12:35:58;4.38;;;2.42;;
7477;SDS011;3780;42.424;25.636;2023-09-18T12:38:23;5.40;;;3.63;;
7477;SDS011;3780;42.424;25.636;2023-09-18T12:40:52;3.70;;;2.45;;
7477;SDS011;3780;42.424;25.636;2023-09-18T12:43:17;5.20;;;2.28;;
7477;SDS011;3780;42.424;25.636;2023-09-18T12:45:43;3.20;;;2.17;;
7477;SDS011;3780;42.424;25.636;2023-09-18T12:48:11;6.45;;;2.80;;
7477;SDS011;3780;42.424;25.636;2023-09-18T12:50:37;7.18;;;2.75;;
7477;SDS011;3780;42.424;25.636;2023-09-18T12:53:08;6.23;;;3.20;;
7477;SDS011;3780;42.424;25.636;2023-09-18T12:55:34;4.70;;;2.58;;
7477;SDS011;3780;42.424;25.636;2023-09-18T12:57:59;9.38;;;2.83;;
7477;SDS011;3780;42.424;25.636;2023-09-18T13:00:30;13.52;;;3.08;;
7477;SDS011;3780;42.424;25.636;2023-09-18T13:02:55;8.15;;;3.00;;
7477;SDS011;3780;42.424;25.636;2023-09-18T13:05:22;5.43;;;2.17;;
7477;SDS011;3780;42.424;25.636;2023-09-18T13:07:50;5.47;;;2.35;;
7477;SDS011;3780;42.424;25.636;2023-09-18T13:10:16;5.57;;;2.47;;
7477;SDS011;3780;42.424;25.636;2023-09-18T13:12:48;8.93;;;6.72;;
7477;SDS011;3780;42.424;25.636;2023-09-18T13:15:28;3.55;;;2.80;;
7477;SDS011;3780;42.424;25.636;2023-09-18T13:17:54;6.53;;;2.97;;
7477;SDS011;3780;42.424;25.636;2023-09-18T13:20:21;4.30;;;2.47;;
7477;SDS011;3780;42.424;25.636;2023-09-18T13:22:50;5.50;;;2.65;;
7477;SDS011;3780;42.424;25.636;2023-09-18T13:25:22;5.63;;;3.17;;
7477;SDS011;3780;42.424;25.636;2023-09-18T13:27:47;4.28;;;3.15;;
7477;SDS011;3780;42.424;25.636;2023-09-18T13:30:13;4.35;;;3.20;;
7477;SDS011;3780;42.424;25.636;2023-09-18T13:32:45;7.50;;;2.90;;
7477;SDS011;3780;42.424;25.636;2023-09-18T13:35:10;6.75;;;2.78;;
7477;SDS011;3780;42.424;25.636;2023-09-18T13:37:37;12.50;;;3.97;;
7477;SDS011;3780;42.424;25.636;2023-09-18T13:40:04;4.95;;;2.92;;
7477;SDS011;3780;42.424;25.636;2023-09-18T13:42:32;7.40;;;3.40;;
7477;SDS011;3780;42.424;25.636;2023-09-18T13:44:57;6.63;;;3.30;;
7477;SDS011;3780;42.424;25.636;2023-09-18T13:47:24;3.53;;;2.70;;
7477;SDS011;3780;42.424;25.636;2023-09-18T13:49:49;4.80;;;2.65;;
7477;SDS011;3780;42.424;25.636;2023-09-18T13:52:14;4.13;;;2.83;;
7477;SDS011;3780;42.424;25.636;2023-09-18T13:54:41;14.18;;;3.70;;
7477;SDS011;3780;42.424;25.636;2023-09-18T13:57:06;5.32;;;2.75;;
7477;SDS011;3780;42.424;25.636;2023-09-18T13:59:32;5.38;;;2.67;;
7477;SDS011;3780;42.424;25.636;2023-09-18T14:01:57;7.53;;;2.88;;
7477;SDS011;3780;42.424;25.636;2023-09-18T14:04:23;4.50;;;2.70;;
7477;SDS011;3780;42.424;25.636;2023-09-18T14:06:48;7.10;;;4.43;;
7477;SDS011;3780;42.424;25.636;2023-09-18T14:09:13;4.30;;;3.10;;
7477;SDS011;3780;42.424;25.636;2023-09-18T14:11:39;4.05;;;2.90;;
7477;SDS011;3780;42.424;25.636;2023-09-18T14:14:04;9.63;;;4.85;;
7477;SDS011;3780;42.424;25.636;2023-09-18T14:16:29;7.95;;;3.53;;
7477;SDS011;3780;42.424;25.636;2023-09-18T14:18:58;7.70;;;3.60;;
7477;SDS011;3780;42.424;25.636;2023-09-18T14:21:23;7.40;;;3.40;;
7477;SDS011;3780;42.424;25.636;2023-09-18T14:23:49;5.28;;;3.80;;
7477;SDS011;3780;42.424;25.636;2023-09-18T14:26:14;4.38;;;3.50;;
7477;SDS011;3780;42.424;25.636;2023-09-18T14:28:40;6.28;;;3.35;;
7477;SDS011;3780;42.424;25.636;2023-09-18T14:31:05;6.60;;;3.08;;
7477;SDS011;3780;42.424;25.636;2023-09-18T14:33:30;7.80;;;3.42;;
7477;SDS011;3780;42.424;25.636;2023-09-18T14:35:56;8.90;;;3.80;;
7477;SDS011;3780;42.424;25.636;2023-09-18T14:38:21;6.57;;;3.33;;
7477;SDS011;3780;42.424;25.636;2023-09-18T14:40:47;6.07;;;3.28;;
7477;SDS011;3780;42.424;25.636;2023-09-18T14:43:12;7.82;;;4.00;;
7477;SDS011;3780;42.424;25.636;2023-09-18T14:45:37;6.45;;;3.08;;
7477;SDS011;3780;42.424;25.636;2023-09-18T14:48:03;7.53;;;3.28;;
7477;SDS011;3780;42.424;25.636;2023-09-18T14:50:29;5.28;;;3.08;;
7477;SDS011;3780;42.424;25.636;2023-09-18T14:52:54;6.15;;;3.60;;
7477;SDS011;3780;42.424;25.636;2023-09-18T14:55:19;4.50;;;3.17;;
7477;SDS011;3780;42.424;25.636;2023-09-18T14:57:45;4.75;;;3.17;;
7477;SDS011;3780;42.424;25.636;2023-09-18T15:00:10;7.03;;;3.88;;
7477;SDS011;3780;42.424;25.636;2023-09-18T15:02:37;5.72;;;3.42;;
7477;SDS011;3780;42.424;25.636;2023-09-18T15:05:03;6.30;;;3.67;;